createdAt,value
2018-10-03T00:01:53.731Z,11.60
2018-10-03T00:04:28.844Z,11.60
2018-10-03T00:07:11.690Z,11.60
2018-10-03T00:09:48.761Z,11.60
2018-10-03T00:12:19.583Z,11.70
2018-10-03T00:14:59.213Z,11.70
2018-10-03T00:17:32.332Z,11.70
2018-10-03T00:20:06.075Z,11.70
2018-10-03T00:23:04.174Z,11.60
2018-10-03T00:25:37.614Z,11.70
2018-10-03T00:28:08.594Z,11.70
2018-10-03T00:30:44.396Z,11.70
2018-10-03T00:33:22.472Z,11.70
2018-10-03T00:35:56.589Z,11.70
2018-10-03T00:38:27.337Z,11.60
2018-10-03T00:41:00.451Z,11.80
2018-10-03T00:43:36.217Z,11.80
2018-10-03T00:46:09.612Z,11.80
2018-10-03T00:48:41.600Z,11.80
2018-10-03T00:51:36.808Z,11.80
2018-10-03T00:54:08.475Z,11.80
2018-10-03T00:56:38.649Z,11.80
2018-10-03T00:59:12.374Z,11.80
2018-10-03T01:01:43.522Z,11.90
2018-10-03T01:04:14.450Z,11.90
2018-10-03T01:06:50.761Z,11.90
2018-10-03T01:09:28.619Z,11.90
2018-10-03T01:12:09.874Z,11.90
2018-10-03T01:14:47.375Z,11.90
2018-10-03T01:17:19.130Z,11.90
2018-10-03T01:19:48.078Z,11.90
2018-10-03T01:22:22.564Z,11.80
2018-10-03T01:24:54.591Z,11.90
2018-10-03T01:30:05.767Z,11.90
2018-10-03T01:32:33.227Z,11.90
2018-10-03T01:35:00.699Z,11.90
2018-10-03T01:37:28.293Z,11.90
2018-10-03T01:39:55.891Z,11.80
2018-10-03T01:42:23.517Z,11.90
2018-10-03T01:44:51.065Z,11.90
2018-10-03T01:47:18.566Z,12.00
2018-10-03T01:49:46.075Z,12.00
2018-10-03T01:52:13.918Z,12.00
2018-10-03T01:54:41.406Z,12.10
2018-10-03T01:57:09.171Z,12.10
2018-10-03T01:59:36.747Z,12.00
2018-10-03T02:02:04.293Z,12.00
2018-10-03T02:04:31.757Z,12.00
2018-10-03T02:06:59.254Z,12.10
2018-10-03T02:09:26.778Z,12.10
2018-10-03T02:11:54.263Z,12.10
2018-10-03T02:14:21.826Z,12.10
2018-10-03T02:16:49.370Z,12.10
2018-10-03T02:19:17.063Z,12.10
2018-10-03T02:21:44.560Z,12.10
2018-10-03T02:24:12.094Z,12.00
2018-10-03T02:26:39.616Z,12.10
2018-10-03T02:29:07.152Z,12.00
2018-10-03T02:31:34.594Z,12.00
2018-10-03T02:34:02.770Z,11.90
2018-10-03T02:36:30.672Z,11.80
2018-10-03T02:38:58.229Z,11.80
2018-10-03T02:41:25.749Z,11.80
2018-10-03T02:43:53.239Z,11.80
2018-10-03T02:46:20.675Z,11.80
2018-10-03T02:48:48.159Z,11.80
2018-10-03T02:51:15.649Z,11.80
2018-10-03T02:53:43.276Z,11.80
2018-10-03T02:56:10.842Z,11.80
2018-10-03T02:58:38.326Z,11.80
2018-10-03T03:01:05.838Z,11.80
2018-10-03T03:03:33.401Z,11.80
2018-10-03T03:06:00.978Z,11.70
2018-10-03T03:08:28.611Z,11.80
2018-10-03T03:10:56.024Z,11.70
2018-10-03T03:13:23.556Z,11.70
2018-10-03T03:15:51.008Z,11.90
2018-10-03T03:18:18.491Z,11.70
2018-10-03T03:20:45.930Z,11.70
2018-10-03T03:23:13.521Z,11.70
2018-10-03T03:25:41.195Z,11.70
2018-10-03T03:28:08.665Z,11.70
2018-10-03T03:30:36.199Z,11.70
2018-10-03T03:33:03.708Z,11.70
2018-10-03T03:35:31.343Z,11.70
2018-10-03T03:37:58.798Z,11.70
2018-10-03T03:40:26.309Z,11.60
2018-10-03T03:42:53.759Z,11.70
2018-10-03T03:45:21.208Z,11.70
2018-10-03T03:47:48.679Z,11.70
2018-10-03T03:50:16.244Z,11.70
2018-10-03T03:52:43.696Z,11.70
2018-10-03T03:55:11.219Z,11.70
2018-10-03T03:57:38.689Z,11.70
2018-10-03T04:00:06.401Z,11.70
2018-10-03T04:02:34.631Z,11.70
2018-10-03T04:05:02.124Z,11.70
2018-10-03T04:07:29.613Z,11.80
2018-10-03T04:09:57.180Z,11.70
2018-10-03T04:12:24.853Z,11.70
2018-10-03T04:14:52.347Z,11.80
2018-10-03T04:17:19.809Z,11.80
2018-10-03T04:19:47.327Z,11.80
2018-10-03T04:22:14.923Z,11.70
2018-10-03T04:24:42.362Z,11.80
2018-10-03T04:27:10.011Z,11.70
2018-10-03T04:29:37.485Z,11.70
2018-10-03T04:32:05.038Z,11.70
2018-10-03T04:34:32.502Z,11.80
2018-10-03T04:37:00.003Z,11.80
2018-10-03T04:39:27.887Z,11.80
2018-10-03T04:41:55.399Z,11.80
2018-10-03T04:44:22.978Z,11.80
2018-10-03T04:46:50.518Z,11.80
2018-10-03T04:49:18.060Z,11.90
2018-10-03T04:51:45.555Z,12.00
2018-10-03T04:54:13.079Z,12.00
2018-10-03T04:56:40.570Z,12.10
2018-10-03T04:59:08.035Z,12.10
2018-10-03T05:01:35.515Z,12.10
2018-10-03T05:04:03.030Z,12.10
2018-10-03T05:06:30.783Z,12.20
2018-10-03T05:08:58.371Z,12.20
2018-10-03T05:11:25.965Z,12.10
2018-10-03T05:13:53.434Z,12.20
2018-10-03T05:16:20.900Z,12.10
2018-10-03T05:18:48.445Z,12.10
2018-10-03T05:21:15.853Z,12.10
2018-10-03T05:23:43.523Z,12.10
2018-10-03T05:26:10.980Z,12.10
2018-10-03T05:28:38.474Z,12.10
2018-10-03T05:31:06.365Z,12.10
2018-10-03T05:33:34.422Z,11.90
2018-10-03T05:36:01.983Z,12.00
2018-10-03T05:38:29.412Z,12.10
2018-10-03T05:40:57.163Z,12.10
2018-10-03T05:43:24.649Z,12.10
2018-10-03T05:45:52.110Z,12.10
2018-10-03T05:48:19.672Z,12.20
2018-10-03T05:50:47.180Z,12.20
2018-10-03T05:53:14.629Z,12.20
2018-10-03T05:55:42.100Z,12.30
2018-10-03T05:58:09.639Z,12.30
2018-10-03T06:00:37.397Z,12.30
2018-10-03T06:03:06.651Z,12.30
2018-10-03T06:05:36.782Z,12.30
2018-10-03T06:08:04.455Z,12.40
2018-10-03T06:10:33.382Z,12.40
2018-10-03T06:13:03.722Z,12.40
2018-10-03T06:15:32.960Z,12.40
2018-10-03T06:18:08.567Z,12.40
2018-10-03T06:23:22.855Z,12.40
2018-10-03T06:25:54.177Z,12.40
2018-10-03T06:28:32.211Z,12.40
2018-10-03T06:31:07.733Z,12.50
2018-10-03T06:33:40.973Z,12.40
2018-10-03T06:36:18.108Z,12.50
2018-10-03T06:38:52.090Z,12.50
2018-10-03T06:41:20.145Z,12.50
2018-10-03T06:43:51.751Z,12.50
2018-10-03T06:46:21.757Z,12.40
2018-10-03T06:48:52.039Z,12.60
2018-10-03T06:51:22.785Z,12.60
2018-10-03T06:53:59.920Z,12.70
2018-10-03T06:56:32.137Z,12.80
2018-10-03T06:59:04.582Z,12.80
2018-10-03T07:01:34.607Z,12.90
2018-10-03T07:04:15.754Z,12.90
2018-10-03T07:06:44.070Z,13.10
2018-10-03T07:14:33.559Z,13.30
2018-10-03T07:17:13.442Z,13.40
2018-10-03T07:19:48.254Z,13.50
2018-10-03T07:22:22.401Z,13.60
2018-10-03T07:24:54.568Z,13.60
2018-10-03T07:27:32.391Z,13.60
2018-10-03T07:30:13.744Z,13.70
2018-10-03T07:32:53.212Z,13.90
2018-10-03T07:35:24.034Z,13.90
2018-10-03T07:38:06.935Z,14.00
2018-10-03T07:40:37.081Z,14.00
2018-10-03T07:43:17.530Z,14.10
2018-10-03T07:45:48.367Z,14.20
2018-10-03T07:48:37.167Z,14.30
2018-10-03T07:51:15.648Z,14.30
2018-10-03T07:53:45.595Z,14.40
2018-10-03T07:56:34.410Z,14.40
2018-10-03T07:59:09.860Z,14.50
2018-10-03T08:01:45.351Z,14.50
2018-10-03T08:04:20.638Z,14.60
2018-10-03T08:30:31.023Z,14.70
2018-10-03T08:33:03.762Z,15.10
2018-10-03T08:35:33.987Z,15.10
2018-10-03T08:38:04.563Z,15.10
2018-10-03T08:40:33.211Z,15.10
2018-10-03T08:43:01.862Z,15.30
2018-10-03T08:45:30.722Z,15.40
2018-10-03T08:50:51.798Z,15.30
2018-10-03T08:53:20.316Z,15.40
2018-10-03T08:55:52.916Z,15.30
2018-10-03T08:58:27.360Z,15.20
2018-10-03T09:01:01.345Z,15.20
2018-10-03T09:03:31.176Z,15.20
2018-10-03T09:06:00.576Z,15.10
2018-10-03T09:08:35.333Z,15.10
2018-10-03T09:11:05.788Z,14.80
2018-10-03T09:13:34.309Z,15.00
2018-10-03T09:16:03.068Z,15.20
2018-10-03T09:18:34.752Z,15.30
2018-10-03T09:21:05.840Z,15.40
2018-10-03T09:23:53.999Z,15.40
2018-10-03T10:53:33.439Z,15.50
2018-10-03T10:58:48.707Z,16.10
2018-10-03T11:01:19.104Z,16.20
2018-10-03T11:04:05.965Z,16.10
2018-10-03T11:06:44.445Z,16.30
2018-10-03T11:12:00.248Z,16.00
2018-10-03T11:14:30.618Z,16.10
2018-10-03T11:17:00.840Z,16.20
2018-10-03T11:19:37.325Z,16.10
2018-10-03T11:22:12.163Z,16.00
2018-10-03T11:24:48.021Z,16.00
2018-10-03T11:27:25.391Z,16.00
2018-10-03T11:30:03.617Z,16.10
2018-10-03T11:32:44.826Z,16.20
2018-10-03T11:35:16.587Z,16.10
2018-10-03T11:37:48.015Z,16.20
2018-10-03T11:40:18.028Z,16.10
2018-10-03T11:42:59.531Z,16.10
2018-10-03T11:45:29.948Z,16.30
2018-10-03T11:48:06.343Z,16.50
2018-10-03T11:50:36.900Z,16.40
2018-10-03T11:53:12.958Z,16.30
2018-10-03T11:55:41.532Z,16.40
2018-10-03T11:58:20.418Z,16.40
2018-10-03T12:01:00.748Z,16.50
2018-10-03T12:03:41.509Z,16.60
2018-10-03T12:06:15.983Z,16.50
2018-10-03T12:08:52.049Z,16.80
2018-10-03T12:11:21.640Z,16.70
2018-10-03T12:13:59.485Z,16.70
2018-10-03T12:16:39.856Z,16.70
2018-10-03T12:19:16.439Z,16.90
2018-10-03T12:21:49.445Z,16.90
2018-10-03T12:24:24.615Z,17.00
2018-10-03T12:27:04.012Z,17.10
2018-10-03T12:29:38.753Z,16.40
2018-10-03T12:32:10.651Z,17.00
2018-10-03T12:34:46.202Z,17.10
2018-10-03T12:37:15.346Z,17.00
2018-10-03T12:39:47.207Z,16.70
2018-10-03T12:42:22.053Z,16.70
2018-10-03T12:44:52.341Z,16.70
2018-10-03T12:47:23.098Z,16.50
2018-10-03T12:49:57.830Z,16.60
2018-10-03T12:52:29.026Z,16.70
2018-10-03T12:55:01.860Z,16.50
2018-10-03T12:57:57.149Z,16.80
2018-10-03T13:00:31.072Z,16.90
2018-10-03T13:21:25.245Z,17.20
2018-10-03T13:24:03.896Z,17.20
2018-10-03T13:26:34.700Z,17.20
2018-10-03T13:29:07.258Z,17.20
2018-10-03T13:31:41.154Z,17.40
2018-10-03T13:34:11.294Z,17.20
2018-10-03T13:36:41.430Z,17.30
2018-10-03T13:39:13.616Z,17.30
2018-10-03T13:41:42.744Z,17.30
2018-10-03T13:44:10.840Z,17.30
2018-10-03T13:46:39.360Z,17.20
2018-10-03T13:49:12.772Z,17.40
2018-10-03T13:54:59.883Z,17.30
2018-10-03T13:57:37.408Z,17.10
2018-10-03T14:00:41.235Z,17.00
2018-10-03T14:06:17.889Z,16.90
2018-10-03T14:09:03.312Z,16.90
2018-10-03T14:22:37.299Z,17.00
2018-10-03T14:28:27.877Z,16.90
2018-10-03T14:36:54.222Z,17.00
2018-10-03T14:42:07.597Z,17.00
2018-10-03T14:44:42.397Z,17.00
2018-10-03T14:47:12.283Z,16.90
2018-10-03T14:49:42.978Z,16.90
2018-10-03T14:52:16.729Z,16.80
2018-10-03T14:54:48.624Z,16.70
2018-10-03T15:25:48.306Z,16.40
2018-10-03T15:38:04.562Z,16.10
2018-10-03T15:40:33.827Z,16.10
2018-10-03T15:43:03.132Z,16.10
2018-10-03T15:45:32.052Z,16.10
2018-10-03T15:48:00.144Z,16.10
2018-10-03T15:50:28.107Z,16.10
2018-10-03T15:53:01.889Z,16.00
2018-10-03T15:55:36.771Z,16.00
2018-10-03T15:58:06.289Z,15.90
2018-10-03T16:00:36.433Z,15.80
2018-10-03T16:03:26.281Z,16.10
2018-10-03T16:08:41.845Z,15.90
2018-10-03T16:11:12.444Z,15.80
2018-10-03T16:13:44.090Z,15.90
2018-10-03T16:16:13.219Z,15.80
2018-10-03T16:18:51.332Z,15.70
2018-10-03T16:21:30.385Z,15.70
2018-10-03T16:24:01.405Z,15.60
2018-10-03T16:26:35.079Z,15.50
2018-10-03T16:29:04.920Z,15.50
2018-10-03T16:31:36.480Z,15.50
2018-10-03T16:34:07.098Z,15.60
2018-10-03T16:36:44.783Z,15.40
2018-10-03T16:39:13.975Z,15.40
2018-10-03T17:09:05.142Z,14.90
2018-10-03T17:11:33.728Z,14.80
2018-10-03T17:14:35.133Z,14.80
2018-10-03T17:22:28.277Z,14.70
2018-10-03T17:25:03.740Z,14.40
2018-10-03T17:27:38.618Z,14.40
2018-10-03T17:30:10.514Z,14.30
2018-10-03T17:32:43.631Z,14.30
2018-10-03T17:35:19.294Z,14.30
2018-10-03T17:37:49.367Z,14.30
2018-10-03T17:40:22.554Z,14.20
2018-10-03T17:42:51.296Z,14.10
2018-10-03T17:45:23.730Z,14.10
2018-10-03T17:48:07.598Z,14.10
2018-10-03T17:50:39.270Z,14.00
2018-10-03T17:53:16.086Z,14.00
2018-10-03T17:55:47.831Z,14.00
2018-10-03T17:58:19.007Z,14.00
2018-10-03T18:01:05.325Z,13.90
2018-10-03T18:03:42.129Z,13.80
2018-10-03T18:06:25.156Z,13.90
2018-10-03T18:09:05.988Z,13.80
2018-10-03T18:11:46.959Z,13.90
2018-10-03T18:14:22.721Z,13.70
2018-10-03T18:17:11.158Z,13.70
2018-10-03T18:19:40.211Z,13.70
2018-10-03T18:22:14.500Z,13.70
2018-10-03T18:24:44.940Z,13.70
2018-10-03T18:27:15.364Z,13.60
2018-10-03T18:29:48.237Z,13.60
2018-10-03T18:32:17.761Z,13.50
2018-10-03T18:34:48.007Z,13.60
2018-10-03T18:37:16.538Z,13.50
2018-10-03T18:39:44.793Z,13.50
2018-10-03T18:42:14.529Z,13.40
2018-10-03T18:44:51.886Z,13.40
2018-10-03T18:47:20.080Z,13.20
2018-10-03T18:49:48.451Z,13.10
2018-10-03T18:52:19.413Z,13.00
2018-10-03T18:54:49.267Z,13.00
2018-10-03T18:57:29.403Z,13.00
2018-10-03T19:00:00.749Z,13.10
2018-10-03T19:02:35.633Z,13.00
2018-10-03T19:05:05.790Z,12.90
2018-10-03T19:07:37.833Z,12.80
2018-10-03T19:10:09.890Z,12.80
2018-10-03T19:12:42.570Z,12.80
2018-10-03T19:15:13.687Z,12.70
2018-10-03T19:17:45.025Z,12.70
2018-10-03T19:20:13.932Z,12.70
2018-10-03T19:22:43.323Z,12.70
2018-10-03T19:25:14.383Z,12.70
2018-10-03T19:27:49.348Z,12.70
2018-10-03T19:30:18.270Z,12.70
2018-10-03T19:32:52.042Z,12.60
2018-10-03T19:35:32.278Z,12.60
2018-10-03T19:38:03.566Z,12.50
2018-10-03T19:40:33.927Z,12.40
2018-10-03T19:45:38.904Z,12.40
2018-10-03T19:48:08.687Z,12.30
2018-10-03T19:50:36.263Z,12.20
2018-10-03T19:53:06.068Z,12.20
2018-10-03T19:55:33.692Z,12.30
2018-10-03T19:58:03.084Z,12.20
2018-10-03T20:00:31.862Z,12.30
2018-10-03T20:02:59.543Z,12.30
2018-10-03T20:05:27.890Z,12.40
2018-10-03T20:07:55.518Z,12.30
2018-10-03T20:10:23.926Z,12.10
2018-10-03T20:12:51.684Z,12.10
2018-10-03T20:15:20.439Z,12.00
2018-10-03T20:17:48.139Z,12.00
2018-10-03T20:20:15.873Z,12.00
2018-10-03T20:22:43.733Z,12.00
2018-10-03T20:25:12.489Z,12.10
2018-10-03T20:27:40.971Z,12.00
2018-10-03T20:30:09.805Z,11.80
2018-10-03T20:32:37.358Z,11.70
2018-10-03T20:35:04.970Z,11.70
2018-10-03T20:37:33.257Z,11.80
2018-10-03T20:40:01.508Z,11.80
2018-10-03T20:42:29.226Z,11.70
2018-10-03T20:44:56.884Z,11.70
2018-10-03T20:47:25.075Z,11.70
2018-10-03T20:49:52.771Z,11.70
2018-10-03T20:52:20.450Z,11.60
2018-10-03T20:54:48.381Z,11.60
2018-10-03T20:57:16.937Z,11.70
2018-10-03T20:59:46.086Z,11.70
2018-10-03T21:02:15.296Z,11.70
2018-10-03T21:04:42.849Z,11.70
2018-10-03T21:07:11.276Z,11.60
2018-10-03T21:09:41.045Z,11.50
2018-10-03T21:12:09.683Z,11.50
2018-10-03T21:14:37.448Z,11.50
2018-10-03T21:17:05.148Z,11.60
2018-10-03T21:19:32.738Z,11.40
2018-10-03T21:22:00.401Z,11.40
2018-10-03T21:24:27.983Z,11.40
2018-10-03T21:26:55.646Z,11.30
2018-10-03T21:29:23.187Z,11.30
2018-10-03T21:31:51.161Z,11.20
2018-10-03T21:34:21.739Z,11.30
2018-10-03T21:36:49.279Z,11.30
2018-10-03T21:39:16.886Z,11.30
2018-10-03T21:41:44.419Z,11.30
2018-10-03T21:44:11.954Z,11.30
2018-10-03T21:46:39.544Z,11.20
2018-10-03T21:49:07.184Z,11.10
2018-10-03T21:51:34.739Z,11.10
2018-10-03T21:54:02.394Z,11.10
2018-10-03T21:56:29.964Z,11.20
2018-10-03T21:58:57.615Z,11.20
2018-10-03T22:01:25.217Z,11.10
2018-10-03T22:03:53.094Z,11.00
2018-10-03T22:06:20.598Z,11.10
2018-10-03T22:08:48.212Z,11.00
2018-10-03T22:11:15.834Z,11.00
2018-10-03T22:13:43.504Z,11.00
2018-10-03T22:16:10.987Z,10.90
2018-10-03T22:18:38.547Z,10.80
2018-10-03T22:21:06.602Z,10.80
2018-10-03T22:23:34.142Z,10.80
2018-10-03T22:26:01.664Z,10.80
2018-10-03T22:28:29.258Z,10.80
2018-10-03T22:30:56.755Z,10.90
2018-10-03T22:33:24.259Z,10.80
2018-10-03T22:35:51.765Z,10.70
2018-10-03T22:38:19.322Z,10.60
2018-10-03T22:40:46.871Z,10.50
2018-10-03T22:43:14.423Z,10.50
2018-10-03T22:45:41.904Z,10.50
2018-10-03T22:48:09.487Z,10.50
2018-10-03T22:50:37.199Z,10.60
2018-10-03T22:53:04.683Z,10.60
2018-10-03T22:55:32.356Z,10.60
2018-10-03T22:57:59.919Z,10.70
2018-10-03T23:00:27.500Z,10.60
2018-10-03T23:02:55.123Z,10.60
2018-10-03T23:05:22.663Z,10.40
2018-10-03T23:07:50.291Z,10.40
2018-10-03T23:10:17.926Z,10.40
2018-10-03T23:12:45.491Z,10.30
2018-10-03T23:15:13.005Z,10.30
2018-10-03T23:17:40.614Z,10.30
2018-10-03T23:20:08.117Z,10.20
2018-10-03T23:22:35.652Z,10.20
2018-10-03T23:25:03.235Z,10.20
2018-10-03T23:27:30.766Z,10.20
2018-10-03T23:29:58.876Z,10.40
2018-10-03T23:32:26.407Z,10.40
2018-10-03T23:34:53.891Z,10.50
2018-10-03T23:37:21.467Z,10.50
2018-10-03T23:39:48.923Z,10.40
2018-10-03T23:42:16.484Z,10.40
2018-10-03T23:44:43.977Z,10.30
2018-10-03T23:47:11.572Z,10.40
2018-10-03T23:49:39.118Z,10.30
2018-10-03T23:52:06.956Z,10.30
2018-10-03T23:54:34.441Z,10.10
2018-10-03T23:57:06.187Z,10.00
2018-10-03T23:59:33.699Z,10.00
